createdAt,value
2022-12-23T00:00:11.700Z,8.70
2022-12-23T00:02:38.823Z,8.80
2022-12-23T00:05:06.620Z,8.80
2022-12-23T00:07:33.373Z,8.80
2022-12-23T00:10:00.568Z,8.90
2022-12-23T00:12:45.813Z,8.90
2022-12-23T00:15:13.245Z,8.80
2022-12-23T00:17:44.746Z,8.90
2022-12-23T00:20:14.041Z,8.90
2022-12-23T00:23:00.199Z,8.90
2022-12-23T00:25:42.203Z,8.90
2022-12-23T00:28:21.937Z,8.90
2022-12-23T00:30:53.143Z,8.90
2022-12-23T00:33:24.478Z,8.90
2022-12-23T00:35:52.033Z,9.00
2022-12-23T00:38:42.532Z,8.90
2022-12-23T00:41:33.239Z,9.00
2022-12-23T00:44:00.110Z,8.90
2022-12-23T00:46:27.381Z,9.00
2022-12-23T00:49:13.069Z,9.00
2022-12-23T00:51:39.893Z,9.00
2022-12-23T00:54:07.324Z,9.00
2022-12-23T00:56:34.364Z,9.00
2022-12-23T00:59:01.216Z,9.00
2022-12-23T01:01:46.971Z,9.20
2022-12-23T01:04:33.711Z,9.00
2022-12-23T01:07:01.205Z,9.00
2022-12-23T01:09:28.005Z,9.00
2022-12-23T01:11:55.952Z,9.00
2022-12-23T01:14:23.504Z,8.90
2022-12-23T01:16:50.409Z,9.00
2022-12-23T01:19:17.456Z,9.20
2022-12-23T01:21:44.266Z,9.00
2022-12-23T01:24:11.183Z,9.00
2022-12-23T01:26:37.947Z,9.00
2022-12-23T01:29:04.903Z,9.00
2022-12-23T01:31:31.971Z,9.00
2022-12-23T01:33:58.811Z,9.10
2022-12-23T01:36:25.893Z,9.10
2022-12-23T01:38:52.830Z,9.00
2022-12-23T01:41:41.764Z,9.00
2022-12-23T01:44:45.927Z,9.00
2022-12-23T01:47:33.459Z,9.00
2022-12-23T01:50:30.537Z,9.00
2022-12-23T01:53:08.612Z,9.10
2022-12-23T01:55:47.271Z,9.10
2022-12-23T01:58:19.460Z,9.10
2022-12-23T02:01:05.251Z,9.10
2022-12-23T02:03:44.729Z,9.10
2022-12-23T02:06:35.627Z,9.10
2022-12-23T02:09:17.675Z,9.10
2022-12-23T02:11:50.142Z,9.00
2022-12-23T02:14:45.067Z,9.00
2022-12-23T02:17:47.377Z,9.10
2022-12-23T02:20:51.936Z,9.10
2022-12-23T02:23:57.429Z,9.10
2022-12-23T02:26:54.379Z,9.10
2022-12-23T02:29:58.898Z,9.10
2022-12-23T02:32:41.530Z,9.20
2022-12-23T02:35:27.383Z,9.20
2022-12-23T02:38:21.633Z,9.10
2022-12-23T02:41:23.538Z,9.20
2022-12-23T02:44:17.090Z,9.20
2022-12-23T02:46:49.408Z,9.10
2022-12-23T02:49:23.905Z,9.20
2022-12-23T02:52:01.748Z,9.20
2022-12-23T02:54:36.129Z,9.40
2022-12-23T02:57:05.346Z,9.30
2022-12-23T02:59:41.666Z,9.20
2022-12-23T03:02:08.720Z,9.20
2022-12-23T03:04:38.324Z,9.10
2022-12-23T03:07:08.115Z,9.20
2022-12-23T03:09:59.506Z,9.20
2022-12-23T03:12:44.272Z,9.20
2022-12-23T03:15:16.987Z,9.30
2022-12-23T03:18:14.494Z,9.20
2022-12-23T03:20:46.656Z,9.20
2022-12-23T03:23:59.378Z,9.20
2022-12-23T03:26:38.609Z,9.20
2022-12-23T03:29:15.395Z,9.20
2022-12-23T03:31:44.306Z,9.20
2022-12-23T03:34:15.372Z,9.20
2022-12-23T03:36:47.359Z,9.20
2022-12-23T03:39:18.663Z,9.10
2022-12-23T03:41:52.696Z,9.20
2022-12-23T03:44:26.469Z,9.10
2022-12-23T03:47:04.155Z,9.00
2022-12-23T03:49:43.813Z,9.00
2022-12-23T03:52:21.151Z,9.00
2022-12-23T03:54:53.254Z,9.00
2022-12-23T03:57:22.402Z,9.00
2022-12-23T03:59:53.397Z,9.00
2022-12-23T04:02:31.083Z,9.00
2022-12-23T04:05:01.021Z,8.90
2022-12-23T04:07:30.452Z,8.90
2022-12-23T04:10:00.624Z,8.90
2022-12-23T04:12:31.808Z,8.90
2022-12-23T04:14:58.883Z,8.90
2022-12-23T04:17:25.621Z,8.90
2022-12-23T04:19:53.041Z,8.80
2022-12-23T04:22:19.778Z,8.80
2022-12-23T04:24:46.548Z,8.80
2022-12-23T04:27:14.779Z,8.90
2022-12-23T04:29:41.693Z,8.70
2022-12-23T04:32:08.494Z,8.70
2022-12-23T04:34:35.357Z,8.70
2022-12-23T04:37:02.239Z,8.70
2022-12-23T04:39:29.010Z,8.70
2022-12-23T04:41:55.765Z,8.70
2022-12-23T04:44:22.528Z,8.70
2022-12-23T04:46:49.414Z,8.60
2022-12-23T04:49:16.384Z,8.50
2022-12-23T04:51:43.143Z,8.60
2022-12-23T04:54:09.909Z,8.60
2022-12-23T04:56:36.722Z,8.60
2022-12-23T04:59:04.328Z,8.60
2022-12-23T05:01:31.299Z,8.60
2022-12-23T05:03:58.339Z,8.50
2022-12-23T05:06:25.279Z,8.50
2022-12-23T05:08:52.162Z,8.60
2022-12-23T05:11:18.964Z,8.50
2022-12-23T05:13:45.743Z,8.50
2022-12-23T05:16:12.637Z,8.40
2022-12-23T05:18:39.457Z,8.40
2022-12-23T05:21:06.251Z,8.40
2022-12-23T05:23:33.402Z,8.40
2022-12-23T05:26:00.284Z,8.40
2022-12-23T05:28:27.269Z,8.30
2022-12-23T05:31:04.398Z,8.30
2022-12-23T05:33:31.403Z,8.30
2022-12-23T05:35:58.642Z,8.30
2022-12-23T05:38:25.648Z,8.30
2022-12-23T05:40:54.194Z,8.30
2022-12-23T05:43:21.473Z,8.30
2022-12-23T05:45:49.153Z,8.20
2022-12-23T05:48:15.996Z,8.30
2022-12-23T05:50:43.033Z,8.20
2022-12-23T05:53:09.844Z,8.20
2022-12-23T05:55:36.984Z,8.20
2022-12-23T05:58:03.833Z,8.20
2022-12-23T06:00:30.613Z,8.20
2022-12-23T06:02:57.632Z,8.20
2022-12-23T06:05:24.490Z,8.10
2022-12-23T06:07:51.332Z,8.10
2022-12-23T06:10:18.514Z,8.10
2022-12-23T06:12:45.456Z,8.10
2022-12-23T06:15:12.614Z,8.10
2022-12-23T06:17:39.480Z,8.10
2022-12-23T06:20:16.158Z,8.00
2022-12-23T06:22:46.668Z,8.00
2022-12-23T06:25:13.516Z,8.00
2022-12-23T06:27:40.380Z,8.00
2022-12-23T06:30:08.116Z,7.90
2022-12-23T06:32:38.678Z,7.90
2022-12-23T06:35:07.022Z,7.90
2022-12-23T06:37:33.856Z,7.90
2022-12-23T06:40:00.680Z,7.80
2022-12-23T06:42:27.443Z,7.80
2022-12-23T06:44:54.217Z,8.00
2022-12-23T06:47:21.038Z,7.80
2022-12-23T06:49:47.757Z,7.80
2022-12-23T06:52:14.536Z,7.80
2022-12-23T06:54:41.311Z,7.70
2022-12-23T06:57:08.144Z,7.70
2022-12-23T06:59:34.884Z,7.60
2022-12-23T07:02:01.696Z,7.70
2022-12-23T07:04:31.666Z,7.80
2022-12-23T07:06:58.838Z,7.70
2022-12-23T07:09:26.204Z,7.70
2022-12-23T07:11:53.020Z,7.80
2022-12-23T07:14:19.768Z,7.70
2022-12-23T07:16:49.456Z,7.70
2022-12-23T07:19:16.271Z,7.80
2022-12-23T07:21:45.676Z,7.70
2022-12-23T07:24:12.494Z,7.70
2022-12-23T07:26:39.416Z,7.70
2022-12-23T07:29:06.285Z,7.70
2022-12-23T07:31:33.169Z,7.70
2022-12-23T07:34:00.198Z,7.90
2022-12-23T07:36:27.004Z,7.70
2022-12-23T07:38:56.877Z,7.70
2022-12-23T07:41:23.743Z,7.70
2022-12-23T07:43:50.521Z,7.70
2022-12-23T07:46:17.415Z,7.70
2022-12-23T07:48:44.490Z,7.60
2022-12-23T07:51:11.354Z,7.70
2022-12-23T07:53:38.418Z,7.60
2022-12-23T07:56:05.640Z,7.70
2022-12-23T07:58:32.628Z,7.70
2022-12-23T08:01:04.279Z,7.60
2022-12-23T08:03:40.596Z,7.60
2022-12-23T08:06:12.696Z,7.60
2022-12-23T08:08:41.222Z,7.60
2022-12-23T08:11:09.927Z,7.60
2022-12-23T08:13:38.987Z,7.60
2022-12-23T08:16:06.940Z,7.60
2022-12-23T08:18:36.562Z,7.60
2022-12-23T08:21:12.926Z,7.60
2022-12-23T08:23:39.854Z,7.70
2022-12-23T08:26:21.063Z,7.70
2022-12-23T08:28:49.507Z,7.70
2022-12-23T08:31:25.422Z,7.70
2022-12-23T08:33:55.689Z,7.70
2022-12-23T08:36:26.666Z,7.70
2022-12-23T08:38:55.318Z,7.70
2022-12-23T08:41:28.281Z,7.70
2022-12-23T08:43:56.188Z,7.70
2022-12-23T08:46:23.590Z,7.70
2022-12-23T08:48:50.877Z,7.70
2022-12-23T08:51:19.678Z,7.80
2022-12-23T08:53:47.746Z,7.80
2022-12-23T08:56:20.707Z,7.70
2022-12-23T08:58:49.497Z,7.80
2022-12-23T09:01:17.923Z,7.90
2022-12-23T09:03:45.720Z,7.80
2022-12-23T09:06:14.404Z,7.80
2022-12-23T09:08:41.902Z,7.80
2022-12-23T09:11:13.758Z,7.80
2022-12-23T09:13:40.695Z,7.80
2022-12-23T09:16:08.206Z,7.80
2022-12-23T09:18:36.208Z,7.80
2022-12-23T09:21:08.326Z,7.80
2022-12-23T09:23:35.392Z,7.80
2022-12-23T09:26:04.217Z,7.80
2022-12-23T09:28:31.083Z,7.80
2022-12-23T09:30:58.048Z,7.80
2022-12-23T09:33:24.921Z,7.80
2022-12-23T09:35:51.910Z,7.80
2022-12-23T09:38:18.740Z,7.80
2022-12-23T09:40:45.804Z,7.70
2022-12-23T09:43:28.846Z,7.80
2022-12-23T09:46:16.766Z,7.90
2022-12-23T09:49:02.190Z,7.90
2022-12-23T09:51:30.632Z,8.00
2022-12-23T09:54:07.908Z,8.00
2022-12-23T09:57:02.513Z,8.10
2022-12-23T09:59:35.212Z,8.20
2022-12-23T10:02:34.718Z,8.30
2022-12-23T10:05:13.524Z,8.30
2022-12-23T10:07:53.806Z,8.40
2022-12-23T10:10:47.112Z,8.40
2022-12-23T10:13:39.260Z,8.40
2022-12-23T10:16:16.944Z,8.30
2022-12-23T10:19:04.530Z,8.30
2022-12-23T10:21:45.333Z,8.30
2022-12-23T10:24:34.216Z,8.20
2022-12-23T10:27:22.391Z,8.20
2022-12-23T10:29:50.097Z,8.20
2022-12-23T10:32:55.534Z,8.10
2022-12-23T10:35:54.573Z,8.10
2022-12-23T10:38:31.878Z,8.10
2022-12-23T10:41:22.958Z,8.10
2022-12-23T10:44:24.960Z,8.10
2022-12-23T10:47:10.613Z,8.10
2022-12-23T10:49:37.441Z,8.10
2022-12-23T10:52:14.656Z,8.10
2022-12-23T10:54:44.179Z,8.10
2022-12-23T10:57:13.473Z,8.10
2022-12-23T10:59:40.257Z,8.10
2022-12-23T11:02:28.821Z,8.10
2022-12-23T11:04:55.725Z,8.10
2022-12-23T11:07:44.792Z,8.10
2022-12-23T11:10:23.566Z,8.10
2022-12-23T11:12:53.074Z,8.20
2022-12-23T11:15:26.202Z,8.30
2022-12-23T11:18:00.421Z,8.30
2022-12-23T11:20:27.506Z,8.30
2022-12-23T11:22:56.024Z,8.30
2022-12-23T11:25:30.439Z,8.30
2022-12-23T11:28:11.723Z,8.40
2022-12-23T11:30:55.822Z,8.40
2022-12-23T11:33:32.373Z,8.40
2022-12-23T11:36:06.462Z,8.40
2022-12-23T11:38:35.789Z,8.40
2022-12-23T11:41:05.633Z,8.40
2022-12-23T11:43:33.701Z,8.40
2022-12-23T11:46:25.758Z,8.40
2022-12-23T11:49:14.644Z,8.40
2022-12-23T11:51:42.825Z,8.40
2022-12-23T11:54:19.921Z,8.30
2022-12-23T11:56:51.613Z,8.30
2022-12-23T11:59:38.489Z,8.30
2022-12-23T12:02:30.835Z,8.30
2022-12-23T12:05:01.269Z,8.30
2022-12-23T12:07:29.259Z,8.30
2022-12-23T12:09:59.984Z,8.30
2022-12-23T12:12:28.873Z,8.30
2022-12-23T12:14:59.323Z,8.30
2022-12-23T12:17:46.771Z,8.40
2022-12-23T12:20:41.644Z,8.40
2022-12-23T12:23:27.323Z,8.40
2022-12-23T12:25:59.894Z,8.40
2022-12-23T12:28:37.261Z,8.40
2022-12-23T12:31:23.272Z,8.40
2022-12-23T12:34:05.781Z,8.40
2022-12-23T12:36:32.673Z,8.40
2022-12-23T12:39:00.257Z,8.40
2022-12-23T12:41:37.232Z,8.40
2022-12-23T12:44:13.712Z,8.40
2022-12-23T12:46:49.757Z,8.40
2022-12-23T12:49:34.156Z,8.30
2022-12-23T12:52:12.523Z,8.40
2022-12-23T12:54:45.975Z,8.30
2022-12-23T12:57:18.831Z,8.40
2022-12-23T12:59:51.567Z,8.40
2022-12-23T13:02:31.290Z,8.40
2022-12-23T13:05:26.025Z,8.40
2022-12-23T13:08:11.482Z,8.30
2022-12-23T13:10:38.147Z,8.30
2022-12-23T13:13:07.949Z,8.30
2022-12-23T13:15:44.223Z,8.20
2022-12-23T13:18:33.111Z,8.20
2022-12-23T13:21:10.450Z,8.20
2022-12-23T13:23:53.482Z,8.20
2022-12-23T13:26:44.839Z,8.20
2022-12-23T13:29:29.982Z,8.20
2022-12-23T13:32:08.356Z,8.20
2022-12-23T13:34:51.207Z,8.10
2022-12-23T13:37:52.568Z,8.10
2022-12-23T13:40:42.171Z,8.20
2022-12-23T13:43:18.613Z,8.20
2022-12-23T13:45:47.485Z,8.20
2022-12-23T13:48:43.764Z,8.20
2022-12-23T13:51:34.795Z,8.10
2022-12-23T13:54:35.147Z,8.10
2022-12-23T13:57:25.892Z,8.10
2022-12-23T14:00:06.010Z,8.10
2022-12-23T14:02:36.555Z,8.10
2022-12-23T14:05:07.544Z,8.00
2022-12-23T14:07:37.464Z,8.10
2022-12-23T14:10:19.062Z,8.00
2022-12-23T14:12:47.188Z,8.00
2022-12-23T14:15:26.097Z,8.00
2022-12-23T14:18:17.565Z,8.00
2022-12-23T14:20:44.409Z,8.00
2022-12-23T14:23:47.386Z,8.00
2022-12-23T14:26:30.601Z,8.00
2022-12-23T14:29:19.218Z,8.00
2022-12-23T14:31:54.114Z,7.90
2022-12-23T14:34:22.529Z,7.90
2022-12-23T14:37:20.404Z,8.00
2022-12-23T14:39:50.554Z,7.90
2022-12-23T14:42:40.841Z,7.90
2022-12-23T14:45:38.140Z,7.90
2022-12-23T14:48:34.102Z,7.80
2022-12-23T14:51:33.144Z,7.80
2022-12-23T14:54:00.160Z,7.80
2022-12-23T14:56:30.100Z,7.80
2022-12-23T14:59:07.664Z,7.90
2022-12-23T15:01:43.439Z,7.80
2022-12-23T15:04:19.600Z,7.80
2022-12-23T15:06:55.156Z,7.90
2022-12-23T15:09:29.177Z,7.90
2022-12-23T15:11:59.871Z,7.80
2022-12-23T15:14:41.371Z,7.80
2022-12-23T15:17:25.356Z,7.80
2022-12-23T15:19:53.032Z,7.80
2022-12-23T15:22:26.803Z,7.80
2022-12-23T15:24:59.070Z,7.80
2022-12-23T15:27:29.400Z,7.80
2022-12-23T15:29:57.658Z,7.90
2022-12-23T15:32:25.751Z,7.80
2022-12-23T15:34:59.023Z,7.80
2022-12-23T15:37:29.400Z,7.80
2022-12-23T15:40:06.168Z,7.80
2022-12-23T15:42:38.724Z,7.70
2022-12-23T15:45:40.185Z,7.70
2022-12-23T15:48:22.513Z,7.70
2022-12-23T15:50:52.297Z,7.70
2022-12-23T15:53:20.608Z,7.80
2022-12-23T15:55:49.242Z,7.70
2022-12-23T15:58:21.031Z,7.70
2022-12-23T16:00:57.663Z,7.70
2022-12-23T16:03:37.638Z,7.70
2022-12-23T16:06:07.643Z,7.70
2022-12-23T16:08:34.835Z,7.70
2022-12-23T16:11:13.341Z,7.80
2022-12-23T16:13:46.673Z,7.60
2022-12-23T16:16:33.451Z,7.60
2022-12-23T16:19:00.414Z,7.60
2022-12-23T16:21:36.513Z,7.60
2022-12-23T16:24:08.594Z,7.60
2022-12-23T16:26:42.949Z,7.60
2022-12-23T16:29:11.628Z,7.60
2022-12-23T16:31:42.779Z,7.60
2022-12-23T16:34:13.202Z,7.60
2022-12-23T16:36:40.157Z,7.60
2022-12-23T16:39:06.956Z,7.70
2022-12-23T16:41:34.323Z,7.60
2022-12-23T16:44:01.960Z,7.60
2022-12-23T16:46:34.193Z,7.50
2022-12-23T16:49:05.258Z,7.60
2022-12-23T16:51:34.416Z,7.60
2022-12-23T16:54:01.937Z,7.60
2022-12-23T16:56:35.728Z,7.60
2022-12-23T16:59:02.928Z,7.50
2022-12-23T17:01:39.820Z,7.50
2022-12-23T17:04:07.855Z,7.50
2022-12-23T17:06:36.066Z,7.50
2022-12-23T17:09:04.574Z,7.50
2022-12-23T17:11:41.624Z,7.50
2022-12-23T17:14:18.159Z,7.50
2022-12-23T17:16:46.098Z,7.50
2022-12-23T17:19:13.243Z,7.50
2022-12-23T17:21:41.944Z,7.50
2022-12-23T17:24:14.071Z,7.40
2022-12-23T17:26:40.962Z,7.50
2022-12-23T17:29:10.077Z,7.50
2022-12-23T17:31:37.136Z,7.50
2022-12-23T17:34:04.071Z,7.50
2022-12-23T17:36:30.868Z,7.40
2022-12-23T17:38:57.881Z,7.40
2022-12-23T17:41:29.792Z,7.40
2022-12-23T17:43:56.952Z,7.40
2022-12-23T17:46:24.685Z,7.40
2022-12-23T17:48:51.653Z,7.40
2022-12-23T17:51:20.900Z,7.40
2022-12-23T17:53:51.696Z,7.40
2022-12-23T17:56:24.701Z,7.40
2022-12-23T17:58:51.912Z,7.40
2022-12-23T18:01:27.695Z,7.40
2022-12-23T18:03:56.125Z,7.40
2022-12-23T18:06:24.998Z,7.40
2022-12-23T18:08:51.966Z,7.40
2022-12-23T18:11:27.671Z,7.40
2022-12-23T18:13:54.799Z,7.40
2022-12-23T18:16:21.965Z,7.40
2022-12-23T18:18:48.967Z,7.40
2022-12-23T18:21:27.234Z,7.40
2022-12-23T18:24:12.879Z,7.40
2022-12-23T18:26:39.897Z,7.40
2022-12-23T18:29:07.114Z,7.40
2022-12-23T18:31:34.061Z,7.40
2022-12-23T18:34:01.075Z,7.30
2022-12-23T18:36:31.245Z,7.30
2022-12-23T18:39:22.201Z,7.20
2022-12-23T18:41:49.117Z,7.30
2022-12-23T18:44:21.120Z,7.30
2022-12-23T18:46:49.345Z,7.50
2022-12-23T18:49:16.406Z,7.30
2022-12-23T18:51:46.146Z,7.30
2022-12-23T18:54:17.123Z,7.40
2022-12-23T18:56:44.514Z,7.40
2022-12-23T18:59:24.301Z,7.30
2022-12-23T19:01:56.571Z,7.30
2022-12-23T19:04:23.880Z,7.30
2022-12-23T19:06:50.757Z,7.30
2022-12-23T19:09:20.551Z,7.30
2022-12-23T19:11:49.887Z,7.30
2022-12-23T19:14:17.209Z,7.30
2022-12-23T19:16:50.852Z,7.30
2022-12-23T19:19:21.312Z,7.30
2022-12-23T19:21:48.771Z,7.30
2022-12-23T19:24:16.164Z,7.30
2022-12-23T19:26:44.021Z,7.30
2022-12-23T19:29:11.168Z,7.30
2022-12-23T19:31:38.442Z,7.30
2022-12-23T19:34:09.698Z,7.30
2022-12-23T19:36:41.629Z,7.30
2022-12-23T19:39:17.678Z,7.30
2022-12-23T19:41:45.674Z,7.40
2022-12-23T19:44:13.019Z,7.30
2022-12-23T19:46:39.999Z,7.30
2022-12-23T19:49:06.922Z,7.30
2022-12-23T19:51:34.037Z,7.30
2022-12-23T19:54:01.199Z,7.20
2022-12-23T19:56:30.223Z,7.20
2022-12-23T19:58:57.083Z,7.20
2022-12-23T20:01:25.974Z,7.30
2022-12-23T20:03:55.534Z,7.30
2022-12-23T20:06:29.421Z,7.30
2022-12-23T20:09:00.997Z,7.30
2022-12-23T20:11:30.881Z,7.40
2022-12-23T20:13:58.838Z,7.40
2022-12-23T20:16:26.801Z,7.30
2022-12-23T20:18:54.730Z,7.30
2022-12-23T20:21:21.925Z,7.30
2022-12-23T20:23:49.927Z,7.10
2022-12-23T20:26:18.738Z,7.30
2022-12-23T20:28:49.149Z,7.30
2022-12-23T20:31:22.691Z,7.30
2022-12-23T20:33:52.119Z,7.30
2022-12-23T20:36:22.251Z,7.20
2022-12-23T20:38:50.536Z,7.20
2022-12-23T20:41:19.590Z,7.30
2022-12-23T20:44:02.804Z,7.30
2022-12-23T20:46:34.338Z,7.30
2022-12-23T20:49:02.987Z,7.30
2022-12-23T20:51:29.817Z,7.30
2022-12-23T20:54:01.015Z,7.30
2022-12-23T20:56:30.363Z,7.30
2022-12-23T20:58:59.351Z,7.30
2022-12-23T21:01:32.990Z,7.30
2022-12-23T21:04:02.318Z,7.30
2022-12-23T21:06:30.763Z,7.30
2022-12-23T21:08:59.824Z,7.30
2022-12-23T21:11:36.179Z,7.30
2022-12-23T21:14:06.893Z,7.30
2022-12-23T21:16:36.101Z,7.20
2022-12-23T21:19:04.360Z,7.20
2022-12-23T21:21:32.114Z,7.20
2022-12-23T21:24:02.268Z,7.20
2022-12-23T21:26:30.842Z,7.20
2022-12-23T21:28:59.869Z,7.20
2022-12-23T21:31:29.063Z,7.20
2022-12-23T21:33:56.652Z,7.20
2022-12-23T21:36:26.550Z,7.20
2022-12-23T21:38:53.708Z,7.30
2022-12-23T21:41:24.816Z,7.30
2022-12-23T21:43:52.315Z,7.30
2022-12-23T21:46:21.950Z,7.30
2022-12-23T21:48:49.757Z,7.20
2022-12-23T21:51:36.659Z,7.20
2022-12-23T21:54:06.319Z,7.20
2022-12-23T21:56:33.247Z,7.20
2022-12-23T21:59:02.187Z,7.20
2022-12-23T22:01:30.355Z,7.20
2022-12-23T22:03:58.029Z,7.20
2022-12-23T22:06:37.509Z,7.10
2022-12-23T22:09:08.401Z,7.20
2022-12-23T22:11:36.761Z,7.10
2022-12-23T22:14:06.145Z,7.20
2022-12-23T22:16:34.184Z,7.10
2022-12-23T22:19:02.068Z,7.10
2022-12-23T22:21:31.242Z,7.10
2022-12-23T22:23:59.959Z,7.10
2022-12-23T22:26:29.926Z,7.10
2022-12-23T22:28:59.169Z,7.10
2022-12-23T22:31:45.021Z,7.10
2022-12-23T22:34:17.605Z,7.10
2022-12-23T22:36:45.163Z,7.10
2022-12-23T22:39:20.026Z,7.10
2022-12-23T22:41:47.860Z,7.10
2022-12-23T22:44:15.242Z,7.20
2022-12-23T22:46:42.731Z,7.10
2022-12-23T22:49:13.784Z,7.10
2022-12-23T22:51:41.376Z,7.10
2022-12-23T22:54:11.984Z,7.10
2022-12-23T22:56:38.873Z,7.10
2022-12-23T22:59:05.968Z,7.30
2022-12-23T23:01:35.900Z,7.00
2022-12-23T23:04:03.925Z,7.30
2022-12-23T23:06:37.893Z,7.20
2022-12-23T23:09:12.108Z,7.10
2022-12-23T23:11:39.646Z,7.20
2022-12-23T23:14:06.737Z,7.20
2022-12-23T23:16:33.882Z,7.20
2022-12-23T23:19:01.700Z,7.20
2022-12-23T23:21:28.689Z,7.20
2022-12-23T23:23:55.498Z,7.30
2022-12-23T23:26:26.901Z,7.30
2022-12-23T23:28:54.798Z,7.30
2022-12-23T23:34:09.195Z,7.30
2022-12-23T23:36:36.235Z,7.30
2022-12-23T23:39:03.119Z,7.30
2022-12-23T23:41:29.986Z,7.30
2022-12-23T23:43:56.857Z,7.20
2022-12-23T23:46:24.034Z,7.20
2022-12-23T23:48:50.909Z,7.20
2022-12-23T23:51:17.714Z,7.20
2022-12-23T23:53:44.535Z,7.20
2022-12-23T23:56:11.403Z,7.20
2022-12-23T23:58:38.454Z,7.20
